Latest Weather Observations for Camden

IDN60801

Issued at 6:02 pm EDT Monday 30 March 2015 (issued every 30 minutes, with the page automatically refreshed every 10 minutes)

About weather observations | Map of weather stations | Latest weather observations for NSW | Other Formats
Station Details ID: 068192 Name: CAMDEN AIRPORT AWS Lat: -34.04 Lon: 150.69 Height: 73.9 m
Data from the previous 72 hours. | See also: Recent months at Camden
Date/Time
EDT
Temp
°C
App
Temp
°C
Dew
Point
Rel
Hum
%
Delta-T
°C
Wind Press
QNH
hPa
Press
MSL
hPa
Rain
since 9 am
mm
Dir
 
Spd
km/h
Gust
km/h
Spd
kts
Gust
kts
30/06:00pm 21.6 21.4 14.7 65 4.1 E 9 17 5 9 1023.6 1023.4 -
30/05:30pm 22.0 20.6 14.4 62 4.5 ENE 15 20 8 11 1023.1 1022.9 0.0
30/05:00pm 23.0 21.8 12.9 53 5.8 ENE 11 17 6 9 1022.7 1022.5 0.0
30/04:30pm 23.5 22.9 13.4 53 5.9 E 9 13 5 7 1022.3 1022.1 0.0
30/04:00pm 24.8 23.5 12.4 46 7.1 NE 11 17 6 9 1022.3 1022.1 0.0
30/03:30pm 24.2 22.2 11.5 45 7.2 ENE 13 17 7 9 1022.4 1022.2 0.0
30/03:00pm 23.7 22.1 11.4 46 6.9 ENE 11 15 6 8 1022.5 1022.3 0.0
30/02:30pm 23.8 21.9 11.8 47 6.8 ENE 13 17 7 9 1022.6 1022.4 0.0
30/02:00pm 24.7 23.7 14.5 53 6.1 E 13 20 7 11 1022.8 1022.6 0.0
30/01:30pm 24.8 24.0 14.0 51 6.4 SE 11 19 6 10 1022.9 1022.7 0.0
30/01:00pm 24.4 24.2 14.8 55 5.7 ESE 9 17 5 9 1023.4 1023.2 0.0
30/12:30pm 23.4 24.1 16.0 63 4.5 SSE 7 17 4 9 1023.8 1023.6 0.0
30/12:00pm 22.0 23.2 14.9 64 4.2 NNW 2 7 1 4 1024.3 1024.1 0.0
30/11:30am 21.3 22.2 15.2 68 3.6 NW 4 7 2 4 1024.7 1024.5 0.0
30/11:00am 20.4 20.1 15.4 73 3.0 NNW 11 15 6 8 1024.7 1024.5 0.0
30/10:30am 20.2 19.9 15.4 74 2.8 NNW 11 15 6 8 1024.6 1024.4 0.0
30/10:00am 19.8 20.2 15.4 76 2.6 ESE 7 13 4 7 1024.1 1023.9 0.0
30/09:30am 17.8 17.4 16.3 91 0.9 SSE 13 17 7 9 1024.0 1023.8 0.0
30/09:00am 16.4 16.5 15.4 94 0.6 SE 9 13 5 7 1024.6 1024.4 0.0
30/08:30am 16.0 16.1 15.4 96 0.3 SE 9 11 5 6 1024.4 1024.2 0.0
30/08:00am 15.5 15.4 15.0 97 0.3 SSE 9 13 5 7 1024.3 1024.1 0.0
30/07:30am 15.1 16.5 14.3 95 0.5 CALM 0 0 0 0 1024.2 1024.0 0.0
30/07:00am 15.0 16.3 14.2 95 0.5 CALM 0 0 0 0 1023.8 1023.6 0.0
30/06:30am 14.8 16.1 14.0 95 0.5 CALM 0 0 0 0 1023.4 1023.2 0.0
30/06:00am 14.7 15.9 13.7 94 0.6 CALM 0 0 0 0 1023.0 1022.8 0.0
30/05:30am 14.9 16.1 13.9 94 0.6 CALM 0 0 0 0 1022.7 1022.5 0.0
30/05:00am 14.9 16.2 14.1 95 0.5 CALM 0 0 0 0 1022.4 1022.2 0.0
30/04:30am 14.8 16.1 14.0 95 0.5 CALM 0 0 0 0 1022.3 1022.1 0.0
30/04:00am 14.7 16.0 14.1 96 0.3 CALM 0 0 0 0 1022.4 1022.2 0.0
30/03:30am 14.6 15.9 14.0 96 0.3 CALM 0 0 0 0 1022.5 1022.3 0.0
30/03:00am 14.6 14.5 14.0 96 0.3 SE 7 11 4 6 1022.6 1022.4 0.0
30/02:30am 14.6 15.8 13.8 95 0.4 CALM 0 0 0 0 1022.7 1022.5 0.0
30/02:00am 15.1 16.5 14.5 96 0.3 CALM 0 0 0 0 1023.0 1022.8 0.0
30/01:30am 15.1 16.5 14.3 95 0.5 CALM 0 0 0 0 1023.1 1022.9 0.0
30/01:00am 15.0 15.9 14.0 94 0.6 SSW 2 6 1 3 1023.2 1023.0 0.0
30/12:30am 15.2 15.4 14.1 93 0.6 S 6 7 3 4 1023.3 1023.1 0.0
30/12:00am 15.5 16.5 14.2 92 0.7 SSW 2 7 1 4 1023.6 1023.4 0.0
 
Date/Time
EDT
Temp
°C
App
Temp
°C
Dew
Point
Rel
Hum
%
Delta-T
°C
Wind Press
QNH
hPa
Press
MSL
hPa
Rain
since 9 am
mm
Dir
 
Spd
km/h
Gust
km/h
Spd
kts
Gust
kts
29/11:30pm 15.9 17.3 14.4 91 0.9 CALM 0 4 0 2 1023.5 1023.3 0.0
29/11:00pm 15.8 16.3 14.0 89 1.0 S 4 9 2 5 1023.5 1023.3 0.0
29/10:30pm 16.6 18.2 15.0 90 0.9 CALM 0 0 0 0 1023.6 1023.4 0.0
29/10:00pm 16.9 18.3 14.5 86 1.4 CALM 0 0 0 0 1023.3 1023.1 0.0
29/09:30pm 16.9 16.9 14.2 84 1.5 SSE 7 9 4 5 1022.9 1022.7 0.0
29/09:00pm 17.7 18.0 14.6 82 1.8 SSE 6 9 3 5 1022.6 1022.4 0.0
29/08:30pm 18.3 18.5 14.6 79 2.1 S 7 9 4 5 1022.3 1022.1 0.0
29/08:00pm 19.3 20.9 15.0 76 2.5 CALM 0 0 0 0 1022.1 1021.9 0.0
29/07:30pm 20.0 21.5 14.6 71 3.2 CALM 0 6 0 3 1021.6 1021.3 0.0
29/07:00pm 20.9 20.7 14.8 68 3.6 ENE 9 13 5 7 1021.0 1020.7 0.0
29/06:30pm 21.9 20.2 14.8 64 4.2 NE 17 20 9 11 1020.8 1020.5 0.0
29/06:00pm 22.9 21.5 14.5 59 5.0 ENE 15 19 8 10 1020.5 1020.2 0.0
29/05:30pm 24.0 22.9 10.7 43 7.4 ENE 7 11 4 6 1020.2 1019.9 0.0
29/05:00pm 24.5 23.4 10.8 42 7.6 ENE 7 9 4 5 1020.4 1020.1 0.0
29/04:30pm 24.5 23.5 11.1 43 7.5 NNE 7 13 4 7 1020.3 1020.0 0.0
29/04:00pm 24.6 23.3 11.2 43 7.5 NNE 9 13 5 7 1020.4 1020.1 0.0
29/03:30pm 24.9 22.9 11.5 43 7.6 NNE 13 19 7 10 1020.7 1020.4 0.0
29/03:00pm 24.9 23.4 10.7 40 7.9 NNE 9 15 5 8 1020.8 1020.5 0.0
29/02:30pm 25.1 23.4 11.3 42 7.8 N 11 17 6 9 1021.0 1020.7 0.0
29/02:00pm 25.5 24.7 10.9 40 8.2 W 6 13 3 7 1021.1 1020.8 0.0
29/01:30pm 24.7 22.8 10.6 41 7.9 NW 11 19 6 10 1021.7 1021.4 0.0
29/01:00pm 24.2 22.3 11.9 46 7.0 NNW 13 22 7 12 1022.2 1022.0 0.0
29/12:30pm 23.6 22.9 11.3 46 6.9 NNW 6 17 3 9 1022.6 1022.4 0.0
29/12:00pm 23.5 21.6 13.1 52 6.0 N 15 24 8 13 1022.9 1022.7 0.0
29/11:30am 22.8 21.1 13.6 56 5.4 N 15 24 8 13 1023.2 1023.0 0.0
29/11:00am 21.2 21.2 13.6 62 4.4 N 6 11 3 6 1023.5 1023.3 0.0
29/10:30am 18.3 17.7 12.3 68 3.3 ESE 7 9 4 5 1023.9 1023.7 0.0
29/10:00am 15.2 15.8 11.8 80 1.8 CALM 0 0 0 0 1024.3 1024.1 0.0
29/09:30am 14.5 15.1 11.8 84 1.5 CALM 0 0 0 0 1024.1 1023.9 0.0
29/09:00am 13.1 13.6 11.5 90 0.8 CALM 0 0 0 0 1023.7 1023.5 0.0
29/08:30am 12.1 12.1 11.3 95 0.4 SW 2 6 1 3 1023.6 1023.4 0.0
29/08:00am 11.5 11.4 10.9 96 0.3 SE 2 6 1 3 1023.3 1023.1 0.0
29/07:30am 11.2 11.4 10.4 95 0.4 CALM 0 0 0 0 1023.4 1023.2 0.0
29/07:00am 11.0 11.1 10.2 95 0.4 CALM 0 0 0 0 1023.0 1022.8 0.0
29/06:30am 11.0 11.2 10.4 96 0.3 CALM 0 0 0 0 1022.8 1022.6 0.0
29/06:00am 11.0 11.2 10.4 96 0.3 CALM 0 0 0 0 1022.4 1022.2 0.0
29/05:30am 11.1 11.3 10.6 97 0.3 CALM 0 0 0 0 1022.4 1022.2 0.0
29/05:00am 10.6 10.6 9.8 95 0.4 CALM 0 0 0 0 1022.4 1022.2 0.0
29/04:30am 10.8 10.9 10.0 95 0.4 CALM 0 0 0 0 1022.4 1022.2 0.0
29/04:00am 11.0 11.1 10.1 94 0.5 CALM 0 0 0 0 1022.5 1022.3 0.0
29/03:30am 11.5 11.7 10.4 93 0.6 CALM 0 0 0 0 1022.6 1022.4 0.0
29/03:00am 11.7 11.9 10.6 93 0.6 CALM 0 0 0 0 1022.8 1022.6 0.0
29/02:30am 12.2 12.5 10.9 92 0.7 CALM 0 0 0 0 1023.0 1022.8 0.0
29/02:00am 12.1 12.3 10.5 90 0.8 CALM 0 0 0 0 1023.1 1022.9 0.0
29/01:30am 12.9 13.3 11.1 89 0.9 CALM 0 0 0 0 1023.3 1023.1 0.0
29/01:00am 13.5 13.9 11.2 86 1.2 CALM 0 0 0 0 1023.5 1023.3 0.0
29/12:30am 13.9 14.3 11.4 85 1.3 CALM 0 0 0 0 1023.7 1023.5 0.0
29/12:00am 14.4 14.8 11.4 82 1.6 CALM 0 0 0 0 1023.8 1023.6 0.0
 
Date/Time
EDT
Temp
°C
App
Temp
°C
Dew
Point
Rel
Hum
%
Delta-T
°C
Wind Press
QNH
hPa
Press
MSL
hPa
Rain
since 9 am
mm
Dir
 
Spd
km/h
Gust
km/h
Spd
kts
Gust
kts
28/11:30pm 14.9 15.4 11.7 81 1.7 CALM 0 0 0 0 1024.0 1023.8 0.0
28/11:00pm 15.3 15.8 11.7 79 1.9 CALM 0 0 0 0 1024.1 1023.9 0.0
28/10:30pm 15.7 16.2 11.7 77 2.2 CALM 0 0 0 0 1024.1 1023.9 0.0
28/10:00pm 15.5 16.2 12.3 81 1.7 CALM 0 0 0 0 1024.3 1024.1 0.0
28/09:30pm 15.0 15.6 11.8 81 1.7 CALM 0 0 0 0 1024.3 1024.1 0.0
28/09:00pm 15.8 15.8 11.0 73 2.6 S 2 6 1 3 1023.7 1023.5 0.0
28/08:30pm 16.0 16.3 11.0 72 2.7 CALM 0 0 0 0 1023.5 1023.3 0.0
28/08:00pm 16.9 16.3 10.3 65 3.5 ESE 4 7 2 4 1023.2 1023.0 0.0
28/07:30pm 17.4 16.2 10.3 63 3.8 ESE 7 9 4 5 1022.9 1022.7 0.0
28/07:00pm 18.2 15.8 10.1 59 4.3 ESE 13 17 7 9 1022.5 1022.3 0.0
28/06:30pm 19.4 17.4 10.1 55 5.0 ESE 11 19 6 10 1022.1 1021.9 0.0
28/06:00pm 20.3 17.8 9.8 51 5.6 ESE 13 20 7 11 1021.8 1021.6 0.0
28/05:30pm 21.5 18.4 10.3 49 6.1 E 17 22 9 12 1021.4 1021.1 0.0
28/05:00pm 22.4 20.0 10.2 46 6.7 E 13 19 7 10 1021.2 1020.9 0.0
28/04:30pm 22.8 20.3 9.6 43 7.2 E 13 19 7 10 1021.1 1020.8 0.0
28/04:00pm 23.8 20.8 9.4 40 7.8 ENE 15 24 8 13 1021.0 1020.7 0.0
28/03:30pm 23.8 21.0 5.2 30 9.4 NNE 9 19 5 10 1021.3 1021.0 0.0
28/03:00pm 23.2 21.0 5.1 31 9.0 NW 6 11 3 6 1021.6 1021.3 0.0
28/02:30pm 23.2 19.5 4.7 30 9.2 NNW 13 24 7 13 1021.8 1021.6 0.0
28/02:00pm 23.7 21.2 6.5 33 8.8 E 9 15 5 8 1022.2 1022.0 0.0
28/01:30pm 22.9 19.7 5.3 32 8.8 N 11 20 6 11 1022.6 1022.4 0.0
28/01:00pm 22.5 19.7 5.0 32 8.7 NNE 9 15 5 8 1023.0 1022.8 0.0
28/12:30pm 21.9 19.5 5.3 34 8.3 WSW 7 15 4 8 1023.4 1023.2 0.0
28/12:00pm 21.3 18.5 5.2 35 7.9 SSW 9 13 5 7 1023.7 1023.5 0.0
28/11:30am 21.1 18.9 5.1 35 7.9 E 6 11 3 6 1023.6 1023.4 0.0
28/11:00am 20.7 18.5 6.3 39 7.2 WSW 7 11 4 6 1023.7 1023.5 0.0
28/10:30am 20.0 18.3 7.4 44 6.5 WSW 6 13 3 7 1023.9 1023.7 0.0
28/10:00am 18.0 15.9 6.8 48 5.6 WSW 7 13 4 7 1024.0 1023.8 0.0
28/09:30am 15.7 15.2 8.0 60 3.9 CALM 0 0 0 0 1024.0 1023.8 0.0
28/09:00am 13.3 12.7 7.3 67 2.9 CALM 0 0 0 0 1024.0 1023.8 0.0
28/08:30am 11.1 10.5 7.2 77 1.9 CALM 0 0 0 0 1023.8 1023.6 0.0
28/08:00am 8.3 7.4 6.1 86 1.0 CALM 0 0 0 0 1023.4 1023.2 0.0
28/07:30am 6.7 5.6 5.0 89 0.7 CALM 0 0 0 0 1023.0 1022.8 0.0
28/07:00am 7.3 6.3 5.8 90 0.7 CALM 0 4 0 2 1022.5 1022.3 0.0
28/06:30am 7.3 5.2 5.9 91 0.6 S 6 7 3 4 1022.2 1022.0 0.0
28/06:00am 7.6 6.7 6.2 91 0.6 CALM 0 0 0 0 1021.7 1021.4 0.0
28/05:30am 8.1 7.2 6.2 88 0.9 CALM 0 0 0 0 1021.3 1021.0 0.0
28/05:00am 8.1 7.2 6.2 88 0.9 CALM 0 0 0 0 1021.0 1020.7 0.0
28/04:30am 8.5 7.8 6.8 89 0.8 CALM 0 0 0 0 1020.8 1020.5 0.0
28/04:00am 8.9 8.0 6.0 82 1.3 CALM 0 6 0 3 1020.7 1020.4 0.0
28/03:30am 8.6 7.1 6.6 87 0.9 NE 4 7 2 4 1020.8 1020.5 0.0
28/03:00am 9.8 8.7 7.1 83 1.3 WSW 2 7 1 4 1020.8 1020.5 0.0
28/02:30am 10.4 9.7 6.9 79 1.7 CALM 0 0 0 0 1021.0 1020.7 0.0
28/02:00am 9.7 8.5 6.6 81 1.4 WSW 2 6 1 3 1021.0 1020.7 0.0
28/01:30am 10.0 8.0 6.2 77 1.8 NE 6 9 3 5 1021.0 1020.7 0.0
28/01:00am 11.6 11.0 7.3 75 2.1 CALM 0 2 0 1 1020.9 1020.6 0.0
28/12:30am 12.2 11.4 6.5 68 2.7 CALM 0 0 0 0 1021.0 1020.7 0.0
28/12:00am 12.3 11.1 6.4 67 2.8 SE 2 6 1 3 1020.9 1020.6 0.0
 
Date/Time
EDT
Temp
°C
App
Temp
°C
Dew
Point
Rel
Hum
%
Delta-T
°C
Wind Press
QNH
hPa
Press
MSL
hPa
Rain
since 9 am
mm
Dir
 
Spd
km/h
Gust
km/h
Spd
kts
Gust
kts
27/11:30pm 13.5 12.0 5.2 57 3.9 NNW 2 7 1 4 1021.0 1020.7 0.0
27/11:00pm 13.5 12.2 6.1 61 3.5 NNW 2 7 1 4 1021.0 1020.7 0.0
27/10:30pm 15.5 13.0 4.5 48 5.2 ENE 7 9 4 5 1021.0 1020.7 0.0
27/10:00pm 15.7 12.8 4.7 48 5.2 SSW 9 13 5 7 1020.8 1020.5 0.0
27/09:30pm 16.7 13.4 4.4 44 5.8 WSW 11 13 6 7 1020.7 1020.4 0.0
27/09:00pm 17.8 13.4 4.7 42 6.3 WSW 17 20 9 11 1020.2 1019.9 0.0
27/08:30pm 18.0 14.3 4.6 41 6.4 SW 13 15 7 8 1019.8 1019.5 0.0
27/08:00pm 18.9 15.1 3.9 37 7.1 SW 13 17 7 9 1019.2 1018.9 0.0
27/07:30pm 19.8 15.2 3.5 34 7.7 SW 17 24 9 13 1018.8 1018.5 0.0
27/07:00pm 20.8 16.2 3.5 32 8.3 SW 17 22 9 12 1018.3 1018.0 0.0
27/06:30pm 22.0 17.5 4.1 31 8.7 WSW 17 22 9 12 1017.8 1017.5 0.0

Other Formats:

Comma delimited format used in spreadsheet applications
http://www.bom.gov.au/fwo/IDN60801/IDN60801.94755.axf

JavaScript Object Notation format (JSON) in row-major order
http://www.bom.gov.au/fwo/IDN60801/IDN60801.94755.json